Delaware — WDJ3161 — position and weather

sailwx.info

Track history (hours):
 
Tides and Currents Weather Stations Pressure Air Temp Water Temp Dewpoint Dewpoint Depression Visibility Wind Speed Wind Dir Waves Ship Positions

Delaware

Owner: Vane Line Bunkering, Inc., Philadelphia, PA. More information available from US FCC via Universal Licensing System and Coast Guard Vessel Documentation Center.

Last reported at 2018-Aug-21 04:03 UTC. Time now 2018-Aug-21 04:19 UTC.
Position N 40°42' W 073°60'.

Length 32 m.

Type: Tug. MMSI: 367303000.

Date/timePositionNaut miles runAvg speedWind from/ knotsBaromVisibWave heightAir tempDewpointWater temp
2018-Aug-21 04:03N 40°42' W 073°60'0 6.5
2018-Aug-21 04:00N 40°42' W 073°60'3 6.3
2018-Aug-21 03:30N 40°40' W 074°03'2 3.7
2018-Aug-21 03:02N 40°39' W 074°05'0 0.6
2018-Aug-21 02:59N 40°39' W 074°05'0 0.0
2018-Aug-21 02:29N 40°39' W 074°05'0 0.0
2018-Aug-21 02:02N 40°39' W 074°05'0 0.0
2018-Aug-21 01:59N 40°39' W 074°05'0 0.0
2018-Aug-21 01:29N 40°39' W 074°05'0 0.0
2018-Aug-21 01:02N 40°39' W 074°05'0 0.0
2018-Aug-21 00:59N 40°39' W 074°05'0 0.0
2018-Aug-21 00:29N 40°39' W 074°05'0 0.0
2018-Aug-21 00:02N 40°39' W 074°05'0 0.0
2018-Aug-20 23:59N 40°39' W 074°05'0 0.0
2018-Aug-20 23:29N 40°39' W 074°05'0 0.0
2018-Aug-20 23:02N 40°39' W 074°05'0 0.0
2018-Aug-20 22:56N 40°39' W 074°05'0 0.0
2018-Aug-20 22:29N 40°39' W 074°05'0 0.0
2018-Aug-20 22:02N 40°39' W 074°05'0 0.0
2018-Aug-20 21:59N 40°39' W 074°05'1 1.5
2018-Aug-20 21:30N 40°39' W 074°04'3 5.4
2018-Aug-20 21:02N 40°40' W 074°01'0 0.3
2018-Aug-20 21:00N 40°40' W 074°01'0 0.8
2018-Aug-20 20:30N 40°40' W 074°01'0 0.8
2018-Aug-20 20:03N 40°40' W 074°00'0 0.0
2018-Aug-20 20:00N 40°40' W 074°00'2 4.2
2018-Aug-20 19:31N 40°39' W 074°02'3 5.4
2018-Aug-20 19:01N 40°39' W 074°06'0 0.0
2018-Aug-20 18:25N 40°39' W 074°06'1 1.9
2018-Aug-20 18:03N 40°39' W 074°07'0 6.0
2018-Aug-20 18:00N 40°39' W 074°07'3 6.4
2018-Aug-20 17:30N 40°39' W 074°11'1 0.0
2018-Aug-19 07:45N 40°38' W 074°12'2 6.9
2018-Aug-19 07:30N 40°39' W 074°10'3 5.2
2018-Aug-19 07:00N 40°39' W 074°07'0 0.9
2018-Aug-19 06:30N 40°39' W 074°07'2 3.7
2018-Aug-19 05:53N 40°39' W 074°10'1 2.1
2018-Aug-19 05:30N 40°39' W 074°09'2 4.2
2018-Aug-19 04:56N 40°39' W 074°06'0 0.0
2018-Aug-19 04:29N 40°39' W 074°06'0 0.0
2018-Aug-19 03:59N 40°39' W 074°06'0 0.0
2018-Aug-19 03:29N 40°39' W 074°06'0 0.0
2018-Aug-19 02:59N 40°39' W 074°06'0 0.0
2018-Aug-19 02:29N 40°39' W 074°06'0 0.0
2018-Aug-19 01:56N 40°39' W 074°06'0 0.0
2018-Aug-19 01:29N 40°39' W 074°06'0 0.0
2018-Aug-19 00:59N 40°39' W 074°06'0 0.0
2018-Aug-19 00:29N 40°39' W 074°06'0 0.0
2018-Aug-18 23:56N 40°39' W 074°06'0 0.0
2018-Aug-18 23:29N 40°39' W 074°06'0 0.0
2018-Aug-18 22:59N 40°39' W 074°06'0 0.0
2018-Aug-18 22:26N 40°39' W 074°06'0 0.0
2018-Aug-18 21:56N 40°39' W 074°06'0 0.0
2018-Aug-18 21:30N 40°39' W 074°06'2 3.5
2018-Aug-18 21:00N 40°40' W 074°04'3 6.5
2018-Aug-18 20:30N 40°41' W 074°00'1 1.6
2018-Aug-18 20:00N 40°41' W 074°01'3 5.1
2018-Aug-18 19:28N 40°39' W 074°03'0 0.1
2018-Aug-18 18:58N 40°39' W 074°03'0 0.1
2018-Aug-18 18:28N 40°39' W 074°03'0 0.1
2018-Aug-18 17:58N 40°39' W 074°03'0 0.4
2018-Aug-18 17:28N 40°39' W 074°03'2 3.0
2018-Aug-18 16:58N 40°40' W 074°04'0 0.0
2018-Aug-18 16:28N 40°40' W 074°04'0 0.0
2018-Aug-18 15:58N 40°40' W 074°04'0 0.0
2018-Aug-18 15:28N 40°40' W 074°04'0 0.0
2018-Aug-18 14:58N 40°40' W 074°04'0 0.0
2018-Aug-18 14:28N 40°40' W 074°04'0 0.0
2018-Aug-18 13:58N 40°40' W 074°04'0 0.0
2018-Aug-18 13:28N 40°40' W 074°04'0 0.0
2018-Aug-18 12:58N 40°40' W 074°04'0 0.0
2018-Aug-18 12:28N 40°40' W 074°04'0 0.0
2018-Aug-18 11:58N 40°40' W 074°04'0 0.5
2018-Aug-18 11:30N 40°40' W 074°04'0 0.3
2018-Aug-18 10:56N 40°40' W 074°05'1 3.4
2018-Aug-18 10:30N 40°40' W 074°03'0 0.4
2018-Aug-18 09:59N 40°40' W 074°03'2 3.5
2018-Aug-18 09:30N 40°40' W 074°05'0 0.0
2018-Aug-18 09:00N 40°40' W 074°05'0 0.0
2018-Aug-18 08:30N 40°40' W 074°05'1 1.2
2018-Aug-18 08:00N 40°40' W 074°04'2 1.3
2018-Aug-18 06:27N 40°39' W 074°07'2 4.1
2018-Aug-18 06:00N 40°39' W 074°04'1 2.1
2018-Aug-18 05:29N 40°39' W 074°03'0 0.2
2018-Aug-18 04:59N 40°39' W 074°03'0 0.2
2018-Aug-18 04:29N 40°39' W 074°03'0 0.5
2018-Aug-18 03:59N 40°38' W 074°03'0 0.3
2018-Aug-18 03:29N 40°38' W 074°03'0 0.3
2018-Aug-18 02:59N 40°39' W 074°03'1 3.1
2018-Aug-18 02:30N 40°40' W 074°01'0 0.5
2018-Aug-18 01:58N 40°40' W 074°01'2 3.6
2018-Aug-18 01:30N 40°40' W 074°03'1 1.2
2018-Aug-18 01:00N 40°40' W 074°03'2 4.5
2018-Aug-18 00:28N 40°38' W 074°04'0 0.0
2018-Aug-18 00:00N 40°38' W 074°04'4 7.1
2018-Aug-17 23:30N 40°40' W 074°00'1 1.1
2018-Aug-17 22:59N 40°40' W 074°01'0 0.4
2018-Aug-17 22:30N 40°40' W 074°01'0 0.4
2018-Aug-17 22:00N 40°40' W 074°01'1 1.4
2018-Aug-17 21:29N 40°40' W 074°00'0 0.0
2018-Aug-17 20:59N 40°40' W 074°00'0 0.0
2018-Aug-17 20:29N 40°40' W 074°00'0 0.0
2018-Aug-17 19:59N 40°40' W 074°00'0 0.0
2018-Aug-17 19:29N 40°40' W 074°00'0 0.0
2018-Aug-17 18:59N 40°40' W 074°00'0 0.0
2018-Aug-17 18:29N 40°40' W 074°00'0 0.0
2018-Aug-17 17:59N 40°40' W 074°00'0 0.0
2018-Aug-17 17:29N 40°40' W 074°00'0 0.0
2018-Aug-17 16:59N 40°40' W 074°00'0 0.0
2018-Aug-17 16:29N 40°40' W 074°00'0 0.0
2018-Aug-17 15:59N 40°40' W 074°00'0 0.0
2018-Aug-17 15:29N 40°40' W 074°00'0 0.0
2018-Aug-17 15:00N 40°40' W 074°00'1 2.6
2018-Aug-17 14:30N 40°39' W 074°01'3 3.0
2018-Aug-17 13:29N 40°39' W 074°05'0 0.0
2018-Aug-17 12:59N 40°39' W 074°05'0 0.0
2018-Aug-17 12:29N 40°39' W 074°05'0 0.0
2018-Aug-17 11:56N 40°39' W 074°05'0 0.0
2018-Aug-17 11:29N 40°39' W 074°05'0 0.0
2018-Aug-17 10:59N 40°39' W 074°05'1 1.4
2018-Aug-17 10:30N 40°39' W 074°05'2 3.3
2018-Aug-17 10:00N 40°40' W 074°03'3 6.1
2018-Aug-17 09:29N 40°37' W 074°03'0 0.1
2018-Aug-17 09:01N 40°37' W 074°03'3 6.3
2018-Aug-17 08:28N 40°40' W 074°05'0 0.0
2018-Aug-17 07:58N 40°40' W 074°05'0 0.0
2018-Aug-17 07:25N 40°40' W 074°05'0 0.1
2018-Aug-17 07:01N 40°40' W 074°05'3 5.8
2018-Aug-17 06:30N 40°42' W 074°02'4 8.3
2018-Aug-17 06:00N 40°46' W 074°01'5 7.9
2018-Aug-17 05:22N 40°50' W 073°57'  
Track history (hours):
 
Tides and Currents Weather Stations Pressure Air Temp Water Temp Dewpoint Dewpoint Depression Visibility Wind Speed Wind Dir Waves Ship Positions

Delaware

Owner: Vane Line Bunkering, Inc., Philadelphia, PA. More information available from US FCC via Universal Licensing System and Coast Guard Vessel Documentation Center.

Last reported at 2018-Aug-21 04:03 UTC. Time now 2018-Aug-21 04:19 UTC.
Position N 40°42' W 073°60'.

Length 32 m.

Type: Tug. MMSI: 367303000.

Date/timePositionNaut miles runAvg speedWind from/ knotsBaromVisibWave heightAir tempDewpointWater temp
2018-Aug-21 04:03N 40°42' W 073°60'0 6.5
2018-Aug-21 04:00N 40°42' W 073°60'3 6.3
2018-Aug-21 03:30N 40°40' W 074°03'2 3.7
2018-Aug-21 03:02N 40°39' W 074°05'0 0.6
2018-Aug-21 02:59N 40°39' W 074°05'0 0.0
2018-Aug-21 02:29N 40°39' W 074°05'0 0.0
2018-Aug-21 02:02N 40°39' W 074°05'0 0.0
2018-Aug-21 01:59N 40°39' W 074°05'0 0.0
2018-Aug-21 01:29N 40°39' W 074°05'0 0.0
2018-Aug-21 01:02N 40°39' W 074°05'0 0.0
2018-Aug-21 00:59N 40°39' W 074°05'0 0.0
2018-Aug-21 00:29N 40°39' W 074°05'0 0.0
2018-Aug-21 00:02N 40°39' W 074°05'0 0.0
2018-Aug-20 23:59N 40°39' W 074°05'0 0.0
2018-Aug-20 23:29N 40°39' W 074°05'0 0.0
2018-Aug-20 23:02N 40°39' W 074°05'0 0.0
2018-Aug-20 22:56N 40°39' W 074°05'0 0.0
2018-Aug-20 22:29N 40°39' W 074°05'0 0.0
2018-Aug-20 22:02N 40°39' W 074°05'0 0.0
2018-Aug-20 21:59N 40°39' W 074°05'1 1.5
2018-Aug-20 21:30N 40°39' W 074°04'3 5.4
2018-Aug-20 21:02N 40°40' W 074°01'0 0.3
2018-Aug-20 21:00N 40°40' W 074°01'0 0.8
2018-Aug-20 20:30N 40°40' W 074°01'0 0.8
2018-Aug-20 20:03N 40°40' W 074°00'0 0.0
2018-Aug-20 20:00N 40°40' W 074°00'2 4.2
2018-Aug-20 19:31N 40°39' W 074°02'3 5.4
2018-Aug-20 19:01N 40°39' W 074°06'0 0.0
2018-Aug-20 18:25N 40°39' W 074°06'1 1.9
2018-Aug-20 18:03N 40°39' W 074°07'0 6.0
2018-Aug-20 18:00N 40°39' W 074°07'3 6.4
2018-Aug-20 17:30N 40°39' W 074°11'1 0.0
2018-Aug-19 07:45N 40°38' W 074°12'2 6.9
2018-Aug-19 07:30N 40°39' W 074°10'3 5.2
2018-Aug-19 07:00N 40°39' W 074°07'0 0.9
2018-Aug-19 06:30N 40°39' W 074°07'2 3.7
2018-Aug-19 05:53N 40°39' W 074°10'1 2.1
2018-Aug-19 05:30N 40°39' W 074°09'2 4.2
2018-Aug-19 04:56N 40°39' W 074°06'0 0.0
2018-Aug-19 04:29N 40°39' W 074°06'0 0.0
2018-Aug-19 03:59N 40°39' W 074°06'0 0.0
2018-Aug-19 03:29N 40°39' W 074°06'0 0.0
2018-Aug-19 02:59N 40°39' W 074°06'0 0.0
2018-Aug-19 02:29N 40°39' W 074°06'0 0.0
2018-Aug-19 01:56N 40°39' W 074°06'0 0.0
2018-Aug-19 01:29N 40°39' W 074°06'0 0.0
2018-Aug-19 00:59N 40°39' W 074°06'0 0.0
2018-Aug-19 00:29N 40°39' W 074°06'0 0.0
2018-Aug-18 23:56N 40°39' W 074°06'0 0.0
2018-Aug-18 23:29N 40°39' W 074°06'0 0.0
2018-Aug-18 22:59N 40°39' W 074°06'0 0.0
2018-Aug-18 22:26N 40°39' W 074°06'0 0.0
2018-Aug-18 21:56N 40°39' W 074°06'0 0.0
2018-Aug-18 21:30N 40°39' W 074°06'2 3.5
2018-Aug-18 21:00N 40°40' W 074°04'3 6.5
2018-Aug-18 20:30N 40°41' W 074°00'1 1.6
2018-Aug-18 20:00N 40°41' W 074°01'3 5.1
2018-Aug-18 19:28N 40°39' W 074°03'0 0.1
2018-Aug-18 18:58N 40°39' W 074°03'0 0.1
2018-Aug-18 18:28N 40°39' W 074°03'0 0.1
2018-Aug-18 17:58N 40°39' W 074°03'0 0.4
2018-Aug-18 17:28N 40°39' W 074°03'2 3.0
2018-Aug-18 16:58N 40°40' W 074°04'0 0.0
2018-Aug-18 16:28N 40°40' W 074°04'0 0.0
2018-Aug-18 15:58N 40°40' W 074°04'0 0.0
2018-Aug-18 15:28N 40°40' W 074°04'0 0.0
2018-Aug-18 14:58N 40°40' W 074°04'0 0.0
2018-Aug-18 14:28N 40°40' W 074°04'0 0.0
2018-Aug-18 13:58N 40°40' W 074°04'0 0.0
2018-Aug-18 13:28N 40°40' W 074°04'0 0.0
2018-Aug-18 12:58N 40°40' W 074°04'0 0.0
2018-Aug-18 12:28N 40°40' W 074°04'0 0.0
2018-Aug-18 11:58N 40°40' W 074°04'0 0.5
2018-Aug-18 11:30N 40°40' W 074°04'0 0.3
2018-Aug-18 10:56N 40°40' W 074°05'1 3.4
2018-Aug-18 10:30N 40°40' W 074°03'0 0.4
2018-Aug-18 09:59N 40°40' W 074°03'2 3.5
2018-Aug-18 09:30N 40°40' W 074°05'0 0.0
2018-Aug-18 09:00N 40°40' W 074°05'0 0.0
2018-Aug-18 08:30N 40°40' W 074°05'1 1.2
2018-Aug-18 08:00N 40°40' W 074°04'2 1.3
2018-Aug-18 06:27N 40°39' W 074°07'2 4.1
2018-Aug-18 06:00N 40°39' W 074°04'1 2.1
2018-Aug-18 05:29N 40°39' W 074°03'0 0.2
2018-Aug-18 04:59N 40°39' W 074°03'0 0.2
2018-Aug-18 04:29N 40°39' W 074°03'0 0.5
2018-Aug-18 03:59N 40°38' W 074°03'0 0.3
2018-Aug-18 03:29N 40°38' W 074°03'0 0.3
2018-Aug-18 02:59N 40°39' W 074°03'1 3.1
2018-Aug-18 02:30N 40°40' W 074°01'0 0.5
2018-Aug-18 01:58N 40°40' W 074°01'2 3.6
2018-Aug-18 01:30N 40°40' W 074°03'1 1.2
2018-Aug-18 01:00N 40°40' W 074°03'2 4.5
2018-Aug-18 00:28N 40°38' W 074°04'0 0.0
2018-Aug-18 00:00N 40°38' W 074°04'4 7.1
2018-Aug-17 23:30N 40°40' W 074°00'1 1.1
2018-Aug-17 22:59N 40°40' W 074°01'0 0.4
2018-Aug-17 22:30N 40°40' W 074°01'0 0.4
2018-Aug-17 22:00N 40°40' W 074°01'1 1.4
2018-Aug-17 21:29N 40°40' W 074°00'0 0.0
2018-Aug-17 20:59N 40°40' W 074°00'0 0.0
2018-Aug-17 20:29N 40°40' W 074°00'0 0.0
2018-Aug-17 19:59N 40°40' W 074°00'0 0.0
2018-Aug-17 19:29N 40°40' W 074°00'0 0.0
2018-Aug-17 18:59N 40°40' W 074°00'0 0.0
2018-Aug-17 18:29N 40°40' W 074°00'0 0.0
2018-Aug-17 17:59N 40°40' W 074°00'0 0.0
2018-Aug-17 17:29N 40°40' W 074°00'0 0.0
2018-Aug-17 16:59N 40°40' W 074°00'0 0.0
2018-Aug-17 16:29N 40°40' W 074°00'0 0.0
2018-Aug-17 15:59N 40°40' W 074°00'0 0.0
2018-Aug-17 15:29N 40°40' W 074°00'0 0.0
2018-Aug-17 15:00N 40°40' W 074°00'1 2.6
2018-Aug-17 14:30N 40°39' W 074°01'3 3.0
2018-Aug-17 13:29N 40°39' W 074°05'0 0.0
2018-Aug-17 12:59N 40°39' W 074°05'0 0.0
2018-Aug-17 12:29N 40°39' W 074°05'0 0.0
2018-Aug-17 11:56N 40°39' W 074°05'0 0.0
2018-Aug-17 11:29N 40°39' W 074°05'0 0.0
2018-Aug-17 10:59N 40°39' W 074°05'1 1.4
2018-Aug-17 10:30N 40°39' W 074°05'2 3.3
2018-Aug-17 10:00N 40°40' W 074°03'3 6.1
2018-Aug-17 09:29N 40°37' W 074°03'0 0.1
2018-Aug-17 09:01N 40°37' W 074°03'3 6.3
2018-Aug-17 08:28N 40°40' W 074°05'0 0.0
2018-Aug-17 07:58N 40°40' W 074°05'0 0.0
2018-Aug-17 07:25N 40°40' W 074°05'0 0.1
2018-Aug-17 07:01N 40°40' W 074°05'3 5.8
2018-Aug-17 06:30N 40°42' W 074°02'4 8.3
2018-Aug-17 06:00N 40°46' W 074°01'5 7.9
2018-Aug-17 05:22N 40°50' W 073°57'  

Dump ship's entire track history